Carter, Montana
Current Conditions -  °F | °C
As of 8:56 AM on Sunday 21 Dec 2014 (Local Time) from KGFA Reporting Station
Broken Clouds Broken Clouds  
Wind Chill: 34°   Ceiling: 10000
Heat Index: 43°   Visibility: 10mi
Dew Point: 33°   Wind: 18mph
Humidity: 68%   Direction: 230°SW
Pressure: 29.37"   Gusts: 25mph
Location:  47.78°N, 110.96°W
Report Text: KGFA 211556Z AUTO 23016G22KT 10SM BKN100 06/00 A2937 RMK AO2 SLP965 T00590003
Loading
Personal Weather Stations






























Interactive Weather Map New forecast layout! Learn more

10-Day Weather Forecast

Advertisements
Track Severe Weather on mobile